createdAt,value
2023-03-07T00:02:08.542Z,9.40
2023-03-07T00:04:36.823Z,8.94
2023-03-07T00:07:05.141Z,9.05
2023-03-07T00:09:33.436Z,9.42
2023-03-07T00:12:01.694Z,9.21
2023-03-07T00:14:31.377Z,9.46
2023-03-07T00:16:59.664Z,9.35
2023-03-07T00:19:28.080Z,9.02
2023-03-07T00:21:56.372Z,9.30
2023-03-07T00:24:24.720Z,9.54
2023-03-07T00:26:53.070Z,9.75
2023-03-07T00:29:22.532Z,9.70
2023-03-07T00:31:52.255Z,9.74
2023-03-07T00:34:21.488Z,9.60
2023-03-07T00:36:49.780Z,9.52
2023-03-07T00:39:18.076Z,9.84
2023-03-07T00:41:46.387Z,9.55
2023-03-07T00:44:14.654Z,9.51
2023-03-07T00:46:42.976Z,9.74
2023-03-07T00:49:13.162Z,8.66
2023-03-07T00:51:41.412Z,9.10
2023-03-07T00:54:09.719Z,9.24
2023-03-07T00:56:37.952Z,9.11
2023-03-07T00:59:06.300Z,9.13
2023-03-07T01:01:34.647Z,9.56
2023-03-07T01:04:02.935Z,9.34
2023-03-07T01:06:33.943Z,9.45
2023-03-07T01:09:03.774Z,9.36
2023-03-07T01:11:32.932Z,8.86
2023-03-07T01:14:02.853Z,9.42
2023-03-07T01:16:32.628Z,9.22
2023-03-07T01:19:02.505Z,8.43
2023-03-07T01:21:53.688Z,8.84
2023-03-07T01:24:21.988Z,9.41
2023-03-07T01:26:50.396Z,9.34
2023-03-07T01:29:18.670Z,9.01
2023-03-07T01:31:46.997Z,8.80
2023-03-07T01:34:15.305Z,9.12
2023-03-07T01:36:44.943Z,8.66
2023-03-07T01:39:14.894Z,9.50
2023-03-07T01:41:43.617Z,9.60
2023-03-07T01:44:17.277Z,9.54
2023-03-07T01:46:52.802Z,9.48
2023-03-07T01:49:24.884Z,9.69
2023-03-07T01:51:58.353Z,9.77
2023-03-07T01:54:27.401Z,9.73
2023-03-07T01:56:55.931Z,9.55
2023-03-07T01:59:29.907Z,9.47
2023-03-07T02:01:59.152Z,9.97
2023-03-07T02:04:30.073Z,9.93
2023-03-07T02:07:00.767Z,10.16
2023-03-07T02:09:28.890Z,10.48
2023-03-07T02:11:57.936Z,10.35
2023-03-07T02:14:26.306Z,10.25
2023-03-07T02:16:54.814Z,10.30
2023-03-07T02:19:46.663Z,10.32
2023-03-07T02:22:18.468Z,10.12
2023-03-07T02:24:51.730Z,9.79
2023-03-07T02:27:21.507Z,9.65
2023-03-07T02:29:49.812Z,9.30
2023-03-07T02:32:18.137Z,9.23
2023-03-07T02:34:46.479Z,8.81
2023-03-07T02:37:18.354Z,8.71
2023-03-07T02:39:47.848Z,8.42
2023-03-07T02:42:19.884Z,8.29
2023-03-07T02:44:57.423Z,8.01
2023-03-07T02:47:25.747Z,8.13
2023-03-07T02:49:54.622Z,7.89
2023-03-07T02:52:23.474Z,8.20
2023-03-07T02:54:51.790Z,8.27
2023-03-07T02:57:20.617Z,7.81
2023-03-07T02:59:50.249Z,7.94
2023-03-07T03:02:18.569Z,8.33
2023-03-07T03:04:46.859Z,8.24
2023-03-07T03:07:15.248Z,8.13
2023-03-07T03:09:43.528Z,8.48
2023-03-07T03:12:12.088Z,7.89
2023-03-07T03:14:40.644Z,8.86
2023-03-07T03:17:10.303Z,8.55
2023-03-07T03:19:38.814Z,8.75
2023-03-07T03:22:07.145Z,8.45
2023-03-07T03:24:38.729Z,8.46
2023-03-07T03:27:07.126Z,8.73
2023-03-07T03:29:35.885Z,8.64
2023-03-07T03:32:04.464Z,8.85
2023-03-07T03:34:34.163Z,8.58
2023-03-07T03:37:02.471Z,8.29
2023-03-07T03:39:30.906Z,8.74
2023-03-07T03:41:59.233Z,7.97
2023-03-07T03:44:27.494Z,8.51
2023-03-07T03:46:55.872Z,8.80
2023-03-07T03:49:24.396Z,8.59
2023-03-07T03:51:54.080Z,9.26
2023-03-07T03:54:22.383Z,8.35
2023-03-07T03:56:50.606Z,8.28
2023-03-07T03:59:18.927Z,7.81
2023-03-07T04:01:47.840Z,8.13
2023-03-07T04:04:16.671Z,7.73
2023-03-07T04:06:44.957Z,8.57
2023-03-07T04:09:14.560Z,8.27
2023-03-07T04:11:43.003Z,8.17
2023-03-07T04:14:11.355Z,8.14
2023-03-07T04:16:40.027Z,8.60
2023-03-07T04:19:10.130Z,8.58
2023-03-07T04:21:38.433Z,8.01
2023-03-07T04:24:07.723Z,8.86
2023-03-07T04:26:37.829Z,8.16
2023-03-07T04:29:06.190Z,8.07
2023-03-07T04:31:34.489Z,8.07
2023-03-07T04:34:02.840Z,8.62
2023-03-07T04:36:31.222Z,8.56
2023-03-07T04:38:59.483Z,8.46
2023-03-07T04:41:27.790Z,8.71
2023-03-07T04:43:57.492Z,8.37
2023-03-07T04:46:26.336Z,8.13
2023-03-07T04:48:54.663Z,8.05
2023-03-07T04:51:23.010Z,8.14
2023-03-07T04:53:51.420Z,7.94
2023-03-07T04:56:19.759Z,7.89
2023-03-07T04:58:48.080Z,8.12
2023-03-07T05:01:17.798Z,7.87
2023-03-07T05:03:46.094Z,8.24
2023-03-07T05:06:16.165Z,7.67
2023-03-07T05:08:44.466Z,7.64
2023-03-07T05:11:12.746Z,7.90
2023-03-07T05:13:41.080Z,7.82
2023-03-07T05:16:09.854Z,7.70
2023-03-07T05:18:39.604Z,7.82
2023-03-07T05:21:07.938Z,7.55
2023-03-07T05:23:36.317Z,7.49
2023-03-07T05:26:04.707Z,7.76
2023-03-07T05:28:34.073Z,7.12
2023-03-07T05:31:02.586Z,7.29
2023-03-07T05:33:31.714Z,7.57
2023-03-07T05:36:02.440Z,7.53
2023-03-07T05:38:30.812Z,7.24
2023-03-07T05:40:59.156Z,7.30
2023-03-07T05:43:27.537Z,7.08
2023-03-07T05:45:55.912Z,7.32
2023-03-07T05:48:24.305Z,7.90
2023-03-07T05:50:52.580Z,7.78
2023-03-07T05:53:22.286Z,7.14
2023-03-07T05:55:50.598Z,7.54
2023-03-07T05:58:18.935Z,7.34
2023-03-07T06:00:47.332Z,7.62
2023-03-07T06:03:15.619Z,7.91
2023-03-07T06:05:44.728Z,7.23
2023-03-07T06:08:12.975Z,7.65
2023-03-07T06:10:43.166Z,7.70
2023-03-07T06:13:20.630Z,7.82
2023-03-07T06:15:50.649Z,7.55
2023-03-07T06:18:19.181Z,8.20
2023-03-07T06:20:56.113Z,7.82
2023-03-07T06:23:24.624Z,8.06
2023-03-07T06:25:54.357Z,8.22
2023-03-07T06:28:22.982Z,8.06
2023-03-07T06:30:51.437Z,8.20
2023-03-07T06:33:19.851Z,8.23
2023-03-07T06:35:48.247Z,8.14
2023-03-07T06:38:18.530Z,8.20
2023-03-07T06:40:46.816Z,8.34
2023-03-07T06:43:16.489Z,8.60
2023-03-07T06:45:44.768Z,8.54
2023-03-07T06:48:13.036Z,8.42
2023-03-07T06:50:41.416Z,8.11
2023-03-07T06:53:09.704Z,8.63
2023-03-07T06:55:38.047Z,8.12
2023-03-07T06:58:06.292Z,8.70
2023-03-07T07:00:36.055Z,8.51
2023-03-07T07:03:04.598Z,8.02
2023-03-07T07:05:32.924Z,8.38
2023-03-07T07:08:01.189Z,7.76
2023-03-07T07:10:29.489Z,8.11
2023-03-07T07:12:58.103Z,8.25
2023-03-07T07:15:27.684Z,8.13
2023-03-07T07:17:57.374Z,8.39
2023-03-07T07:20:25.780Z,8.43
2023-03-07T07:22:54.107Z,8.45
2023-03-07T07:25:22.384Z,8.40
2023-03-07T07:27:50.733Z,8.02
2023-03-07T07:30:19.255Z,8.73
2023-03-07T07:32:48.177Z,8.21
2023-03-07T07:35:18.049Z,8.79
2023-03-07T07:37:46.369Z,8.42
2023-03-07T07:40:15.397Z,8.84
2023-03-07T07:42:44.376Z,9.33
2023-03-07T07:45:12.992Z,8.91
2023-03-07T07:47:41.255Z,9.23
2023-03-07T07:50:10.708Z,8.98
2023-03-07T07:52:40.379Z,9.02
2023-03-07T07:55:10.277Z,8.49
2023-03-07T07:57:38.589Z,8.91
2023-03-07T08:00:09.065Z,9.02
2023-03-07T08:02:37.779Z,8.48
2023-03-07T08:05:10.206Z,9.28
2023-03-07T08:07:39.963Z,8.87
2023-03-07T08:10:09.892Z,9.42
2023-03-07T08:12:38.313Z,9.24
2023-03-07T08:15:07.712Z,9.60
2023-03-07T08:17:36.020Z,9.88
2023-03-07T08:20:09.219Z,9.08
2023-03-07T08:22:37.663Z,9.44
2023-03-07T08:25:09.274Z,9.73
2023-03-07T08:27:37.553Z,9.31
2023-03-07T08:30:06.791Z,9.71
2023-03-07T08:32:35.216Z,9.98
2023-03-07T08:35:04.081Z,10.03
2023-03-07T08:37:32.373Z,9.85
2023-03-07T08:40:00.625Z,10.27
2023-03-07T08:42:30.345Z,9.78
2023-03-07T08:44:58.659Z,9.72
2023-03-07T08:47:27.084Z,10.73
2023-03-07T08:49:55.328Z,10.04
2023-03-07T08:52:24.862Z,9.71
2023-03-07T08:54:53.144Z,10.37
2023-03-07T08:57:21.394Z,10.02
2023-03-07T08:59:51.312Z,10.71
2023-03-07T09:02:19.650Z,10.79
2023-03-07T09:04:48.543Z,11.01
2023-03-07T09:07:16.892Z,10.61
2023-03-07T09:09:45.165Z,10.36
2023-03-07T09:12:14.826Z,11.12
2023-03-07T09:14:43.294Z,10.99
2023-03-07T09:17:12.928Z,11.00
2023-03-07T09:19:42.479Z,11.33
2023-03-07T09:22:10.789Z,10.97
2023-03-07T09:24:39.104Z,10.65
2023-03-07T09:27:07.524Z,11.05
2023-03-07T09:29:35.823Z,11.76
2023-03-07T09:32:04.602Z,11.80
2023-03-07T09:34:34.263Z,11.03
2023-03-07T09:37:02.624Z,11.77
2023-03-07T09:39:30.984Z,11.35
2023-03-07T09:42:10.402Z,11.28
2023-03-07T09:44:51.335Z,11.30
2023-03-07T09:47:31.825Z,11.63
2023-03-07T09:50:02.267Z,12.05
2023-03-07T09:52:35.590Z,11.85
2023-03-07T09:55:06.208Z,12.24
2023-03-07T09:57:34.759Z,12.59
2023-03-07T10:00:09.501Z,12.72
2023-03-07T10:02:40.517Z,12.13
2023-03-07T10:05:17.893Z,11.33
2023-03-07T10:07:46.293Z,11.31
2023-03-07T10:10:20.311Z,10.94
2023-03-07T10:12:59.644Z,10.68
2023-03-07T10:15:45.664Z,11.38
2023-03-07T10:18:25.947Z,10.86
2023-03-07T10:21:01.716Z,11.15
2023-03-07T10:24:04.765Z,11.33
2023-03-07T10:26:34.602Z,11.30
2023-03-07T10:29:09.347Z,11.07
2023-03-07T10:31:40.415Z,11.43
2023-03-07T10:34:25.851Z,11.91
2023-03-07T10:37:08.415Z,11.63
2023-03-07T10:39:43.571Z,12.01
2023-03-07T10:42:13.552Z,12.18
2023-03-07T10:44:42.061Z,12.83
2023-03-07T10:47:19.219Z,12.38
2023-03-07T10:49:48.666Z,12.00
2023-03-07T10:52:32.210Z,12.58
2023-03-07T10:55:32.540Z,12.04
2023-03-07T10:58:13.782Z,11.40
2023-03-07T11:00:44.322Z,11.68
2023-03-07T11:03:27.854Z,11.60
2023-03-07T11:05:56.151Z,12.04
2023-03-07T11:08:33.758Z,12.08
2023-03-07T11:11:03.233Z,12.07
2023-03-07T11:13:32.340Z,11.67
2023-03-07T11:16:12.178Z,12.14
2023-03-07T11:18:43.023Z,12.17
2023-03-07T11:21:28.295Z,12.42
2023-03-07T11:24:03.030Z,12.73
2023-03-07T11:26:34.409Z,12.35
2023-03-07T11:29:07.883Z,12.81
2023-03-07T11:31:41.702Z,12.98
2023-03-07T11:34:22.155Z,12.56
2023-03-07T11:36:56.425Z,12.54
2023-03-07T11:39:34.154Z,12.63
2023-03-07T11:42:05.866Z,12.28
2023-03-07T11:44:38.944Z,12.20
2023-03-07T11:47:26.030Z,12.25
2023-03-07T11:50:12.877Z,12.85
2023-03-07T11:52:56.914Z,12.66
2023-03-07T11:55:31.792Z,12.36
2023-03-07T11:58:11.507Z,12.22
2023-03-07T12:00:50.444Z,13.07
2023-03-07T12:03:30.367Z,12.07
2023-03-07T12:06:20.175Z,12.09
2023-03-07T12:08:57.776Z,11.75
2023-03-07T12:11:44.528Z,12.69
2023-03-07T12:14:21.918Z,13.55
2023-03-07T12:16:55.712Z,12.90
2023-03-07T12:19:51.542Z,12.67
2023-03-07T12:22:38.861Z,13.38
2023-03-07T12:25:20.267Z,13.18
2023-03-07T12:27:55.094Z,12.99
2023-03-07T12:30:26.739Z,12.74
2023-03-07T12:32:55.599Z,12.65
2023-03-07T12:35:26.271Z,12.59
2023-03-07T12:37:59.150Z,12.67
2023-03-07T12:40:30.621Z,12.93
2023-03-07T12:43:03.264Z,12.78
2023-03-07T12:45:37.248Z,12.56
2023-03-07T12:48:08.857Z,12.58
2023-03-07T12:50:41.389Z,12.67
2023-03-07T12:53:16.375Z,13.37
2023-03-07T12:55:46.525Z,12.85
2023-03-07T12:58:21.091Z,12.76
2023-03-07T13:00:51.358Z,13.05
2023-03-07T13:03:24.900Z,13.07
2023-03-07T13:05:53.333Z,12.66
2023-03-07T13:08:24.510Z,13.02
2023-03-07T13:10:52.785Z,12.87
2023-03-07T13:13:51.445Z,12.53
2023-03-07T13:16:37.385Z,13.29
2023-03-07T13:19:42.893Z,13.63
2023-03-07T13:22:53.861Z,12.92
2023-03-07T13:25:44.796Z,12.89
2023-03-07T13:28:51.532Z,12.94
2023-03-07T13:31:46.172Z,13.40
2023-03-07T13:34:52.995Z,13.34
2023-03-07T13:37:54.601Z,13.38
2023-03-07T13:40:46.370Z,12.82
2023-03-07T13:43:57.974Z,13.00
2023-03-07T13:46:58.736Z,13.30
2023-03-07T13:49:36.444Z,13.35
2023-03-07T13:52:23.143Z,12.92
2023-03-07T13:54:52.326Z,13.64
2023-03-07T13:57:21.747Z,12.82
2023-03-07T13:59:50.469Z,13.25
2023-03-07T14:02:21.204Z,12.92
2023-03-07T14:04:54.335Z,12.99
2023-03-07T14:07:24.937Z,13.10
2023-03-07T14:09:53.402Z,12.94
2023-03-07T14:12:30.125Z,13.21
2023-03-07T14:15:08.003Z,13.66
2023-03-07T14:17:53.603Z,13.75
2023-03-07T14:20:28.273Z,12.85
2023-03-07T14:23:08.551Z,12.81
2023-03-07T14:25:37.909Z,13.25
2023-03-07T14:28:21.490Z,13.70
2023-03-07T14:30:57.606Z,13.38
2023-03-07T14:33:32.596Z,12.78
2023-03-07T14:36:01.153Z,12.98
2023-03-07T14:38:29.606Z,13.30
2023-03-07T14:41:15.144Z,12.91
2023-03-07T14:43:54.110Z,13.23
2023-03-07T14:46:29.754Z,12.87
2023-03-07T14:49:09.019Z,13.55
2023-03-07T14:51:41.403Z,13.44
2023-03-07T14:54:16.205Z,12.98
2023-03-07T14:56:44.831Z,13.25
2023-03-07T14:59:26.330Z,13.57
2023-03-07T15:01:56.984Z,12.87
2023-03-07T15:04:28.967Z,13.23
2023-03-07T15:06:59.072Z,12.75
2023-03-07T15:09:27.743Z,13.52
2023-03-07T15:12:00.964Z,13.51
2023-03-07T15:14:36.157Z,13.73
2023-03-07T15:17:05.518Z,13.09
2023-03-07T15:19:39.367Z,12.94
2023-03-07T15:22:12.796Z,13.35
2023-03-07T15:24:44.996Z,13.29
2023-03-07T15:27:15.615Z,13.20
2023-03-07T15:29:45.377Z,13.07
2023-03-07T15:32:31.191Z,13.04
2023-03-07T15:35:05.165Z,13.35
2023-03-07T15:37:34.068Z,13.75
2023-03-07T15:40:03.851Z,13.29
2023-03-07T15:42:32.104Z,13.61
2023-03-07T15:45:01.532Z,12.94
2023-03-07T15:47:31.568Z,13.90
2023-03-07T15:50:04.900Z,13.56
2023-03-07T15:52:35.245Z,13.56
2023-03-07T15:55:08.070Z,13.45
2023-03-07T15:57:40.162Z,13.26
2023-03-07T16:00:16.033Z,13.71
2023-03-07T16:02:46.792Z,13.27
2023-03-07T16:05:32.978Z,13.19
2023-03-07T16:08:01.368Z,13.02
2023-03-07T16:10:31.204Z,12.77
2023-03-07T16:13:01.168Z,12.63
2023-03-07T16:15:29.549Z,12.41
2023-03-07T16:17:58.787Z,12.61
2023-03-07T16:20:29.632Z,12.43
2023-03-07T16:22:58.320Z,12.61
2023-03-07T16:25:29.638Z,12.31
2023-03-07T16:28:01.040Z,12.00
2023-03-07T16:30:30.768Z,12.29
2023-03-07T16:32:59.074Z,11.96
2023-03-07T16:35:30.610Z,12.22
2023-03-07T16:37:59.212Z,12.06
2023-03-07T16:40:27.558Z,12.05
2023-03-07T16:42:56.827Z,12.11
2023-03-07T16:45:27.922Z,11.81
2023-03-07T16:47:58.317Z,11.98
2023-03-07T16:50:29.153Z,11.82
2023-03-07T16:52:58.909Z,11.68
2023-03-07T16:55:27.610Z,11.73
2023-03-07T16:57:58.881Z,11.79
2023-03-07T17:00:28.309Z,11.68
2023-03-07T17:02:58.978Z,11.68
2023-03-07T17:05:27.905Z,11.54
2023-03-07T17:07:58.267Z,11.44
2023-03-07T17:10:27.496Z,11.26
2023-03-07T17:12:57.315Z,11.48
2023-03-07T17:15:30.677Z,11.33
2023-03-07T17:17:59.869Z,11.18
2023-03-07T17:20:28.744Z,10.95
2023-03-07T17:22:58.639Z,11.09
2023-03-07T17:25:27.874Z,10.86
2023-03-07T17:27:59.229Z,11.12
2023-03-07T17:30:28.871Z,11.17
2023-03-07T17:32:57.618Z,11.04
2023-03-07T17:35:28.431Z,11.01
2023-03-07T17:37:58.096Z,10.82
2023-03-07T17:40:26.427Z,11.11
2023-03-07T17:42:57.408Z,11.22
2023-03-07T17:45:25.792Z,10.99
2023-03-07T17:47:55.170Z,10.60
2023-03-07T17:50:24.809Z,10.74
2023-03-07T17:52:53.768Z,10.56
2023-03-07T17:55:24.989Z,10.77
2023-03-07T17:57:53.510Z,10.93
2023-03-07T18:00:22.959Z,10.72
2023-03-07T18:02:51.396Z,10.93
2023-03-07T18:05:20.203Z,10.91
2023-03-07T18:07:51.515Z,10.88
2023-03-07T18:10:20.193Z,11.03
2023-03-07T18:12:50.668Z,10.98
2023-03-07T18:15:20.329Z,10.68
2023-03-07T18:17:50.278Z,10.27
2023-03-07T18:20:19.866Z,10.29
2023-03-07T18:22:48.305Z,10.29
2023-03-07T18:25:17.845Z,10.28
2023-03-07T18:27:46.694Z,10.49
2023-03-07T18:30:17.766Z,10.43
2023-03-07T18:32:46.255Z,10.45
2023-03-07T18:35:16.488Z,10.63
2023-03-07T18:37:45.487Z,10.63
2023-03-07T18:40:14.684Z,10.68
2023-03-07T18:42:43.551Z,10.87
2023-03-07T18:45:12.861Z,10.79
2023-03-07T18:47:42.584Z,10.55
2023-03-07T18:50:12.028Z,10.68
2023-03-07T18:52:40.347Z,9.80
2023-03-07T18:55:09.355Z,10.69
2023-03-07T18:57:37.678Z,10.76
2023-03-07T19:00:10.170Z,10.78
2023-03-07T19:02:39.120Z,10.77
2023-03-07T19:05:10.826Z,10.75
2023-03-07T19:07:39.111Z,10.71
2023-03-07T19:10:08.057Z,10.54
2023-03-07T19:12:36.607Z,10.59
2023-03-07T19:15:05.773Z,10.59
2023-03-07T19:17:39.319Z,10.48
2023-03-07T19:20:10.502Z,10.35
2023-03-07T19:22:38.795Z,10.37
2023-03-07T19:25:07.841Z,10.44
2023-03-07T19:27:36.133Z,10.40
2023-03-07T19:30:05.405Z,10.31
2023-03-07T19:32:33.814Z,9.57
2023-03-07T19:35:02.070Z,9.20
2023-03-07T19:37:31.745Z,8.17
2023-03-07T19:39:59.969Z,7.96
2023-03-07T19:42:28.300Z,8.42
2023-03-07T19:44:56.590Z,9.39
2023-03-07T19:47:26.151Z,9.48
2023-03-07T19:49:54.449Z,9.72
2023-03-07T19:52:22.701Z,9.92
2023-03-07T19:54:54.205Z,10.38
2023-03-07T19:57:22.440Z,10.38
2023-03-07T19:59:53.618Z,10.62
2023-03-07T20:02:22.868Z,10.81
2023-03-07T20:04:53.054Z,10.73
2023-03-07T20:07:21.287Z,10.88
2023-03-07T20:09:53.635Z,10.89
2023-03-07T20:12:21.894Z,10.90
2023-03-07T20:14:50.476Z,10.40
2023-03-07T20:17:18.753Z,10.95
2023-03-07T20:19:47.287Z,10.51
2023-03-07T20:22:15.698Z,10.65
2023-03-07T20:24:44.016Z,10.50
2023-03-07T20:27:20.229Z,10.56
2023-03-07T20:29:48.910Z,10.97
2023-03-07T20:32:17.654Z,10.98
2023-03-07T20:34:46.255Z,11.11
2023-03-07T20:37:14.582Z,10.26
2023-03-07T20:39:43.748Z,11.30
2023-03-07T20:42:13.366Z,10.99
2023-03-07T20:44:41.728Z,11.11
2023-03-07T20:47:09.988Z,11.21
2023-03-07T20:49:38.226Z,11.31
2023-03-07T20:52:06.497Z,10.85
2023-03-07T20:54:34.953Z,9.82
2023-03-07T20:57:03.568Z,10.19
2023-03-07T20:59:33.326Z,10.07
2023-03-07T21:02:01.643Z,9.90
2023-03-07T21:04:29.923Z,10.16
2023-03-07T21:06:58.195Z,10.13
2023-03-07T21:09:26.446Z,9.65
2023-03-07T21:11:55.005Z,9.91
2023-03-07T21:14:24.660Z,9.33
2023-03-07T21:16:54.257Z,9.57
2023-03-07T21:19:22.465Z,9.93
2023-03-07T21:21:50.685Z,9.70
2023-03-07T21:24:18.919Z,9.63
2023-03-07T21:26:47.220Z,9.47
2023-03-07T21:29:16.063Z,9.53
2023-03-07T21:31:44.377Z,9.17
2023-03-07T21:34:15.098Z,9.66
2023-03-07T21:36:43.517Z,9.55
2023-03-07T21:39:11.843Z,9.04
2023-03-07T21:41:40.239Z,9.62
2023-03-07T21:44:09.101Z,9.93
2023-03-07T21:46:37.382Z,9.85
2023-03-07T21:49:05.588Z,9.08
2023-03-07T21:51:35.284Z,9.48
2023-03-07T21:54:03.528Z,9.50
2023-03-07T21:56:31.859Z,9.31
2023-03-07T21:59:00.121Z,9.78
2023-03-07T22:01:29.845Z,9.65
2023-03-07T22:03:59.308Z,9.49
2023-03-07T22:06:28.416Z,9.57
2023-03-07T22:08:59.605Z,9.71
2023-03-07T22:11:27.976Z,9.70
2023-03-07T22:13:56.284Z,10.28
2023-03-07T22:16:24.628Z,9.60
2023-03-07T22:18:54.555Z,10.02
2023-03-07T22:21:25.003Z,9.85
2023-03-07T22:23:57.477Z,9.39
2023-03-07T22:26:27.993Z,9.84
2023-03-07T22:28:56.323Z,10.15
2023-03-07T22:31:25.092Z,9.31
2023-03-07T22:33:53.652Z,9.73
2023-03-07T22:36:22.133Z,9.57
2023-03-07T22:38:54.560Z,9.45
2023-03-07T22:41:23.727Z,9.42
2023-03-07T22:43:53.480Z,9.33
2023-03-07T22:46:22.029Z,9.38
2023-03-07T22:48:53.169Z,9.08
2023-03-07T22:51:21.692Z,9.22
2023-03-07T22:53:50.031Z,8.96
2023-03-07T22:56:20.403Z,8.91
2023-03-07T22:58:49.284Z,9.11
2023-03-07T23:01:21.111Z,9.16
2023-03-07T23:03:49.908Z,9.46
2023-03-07T23:06:18.595Z,9.37
2023-03-07T23:08:47.604Z,9.47
2023-03-07T23:11:16.447Z,9.11
2023-03-07T23:13:44.888Z,9.18
2023-03-07T23:16:14.940Z,9.43
2023-03-07T23:18:45.101Z,9.32
2023-03-07T23:21:15.483Z,9.47
2023-03-07T23:23:43.852Z,9.38
2023-03-07T23:26:17.991Z,9.06
2023-03-07T23:28:46.437Z,9.27
2023-03-07T23:31:18.718Z,9.43
2023-03-07T23:33:48.827Z,9.45
2023-03-07T23:36:17.530Z,9.16
2023-03-07T23:38:46.654Z,9.09
2023-03-07T23:41:15.449Z,9.17
2023-03-07T23:43:44.730Z,8.97
2023-03-07T23:46:13.123Z,9.10
2023-03-07T23:48:41.413Z,9.10
2023-03-07T23:51:11.067Z,8.58
2023-03-07T23:53:39.345Z,9.09
2023-03-07T23:56:08.523Z,9.28
2023-03-07T23:58:37.146Z,8.94
